Hollis, New Hampshire
Current Conditions -  °F | °C
As of 2:51 PM on Sunday 23 Nov 2014 (Local Time) from KASH Reporting Station
Clear Clear  
Wind Chill: 58°   Ceiling: Unl
Heat Index: 58°   Visibility: 10mi
Dew Point: 39°   Wind: 6mph
Humidity: 49%   Direction: 260°W
Pressure: 30.1"   Gusts: NA
Location:  42.74°N, 71.59°W
Report Text: KASH 231951Z 26005KT 10SM CLR 14/04 A3010 RMK AO2 T01440038 SLP445
Loading
Personal Weather Stations






























Interactive Weather Map New forecast layout! Learn more

10-Day Weather Forecast

Advertisements
Track Severe Weather on mobile